sensor_id;sensor_type;location;lat;lon;timestamp;pressure;altitude;pressure_sealevel;temperature;humidity
37132;BME280;23035;50.032;21.978;2023-04-09T00:04:36;65570.06;;;3.78;100.00
37132;BME280;23035;50.032;21.978;2023-04-09T00:09:42;65543.59;;;3.57;100.00
37132;BME280;23035;50.032;21.978;2023-04-09T00:14:46;65554.91;;;3.70;100.00
37132;BME280;23035;50.032;21.978;2023-04-09T00:19:51;65613.03;;;4.26;100.00
37132;BME280;23035;50.032;21.978;2023-04-09T00:24:56;65699.94;;;5.06;100.00
37132;BME280;23035;50.032;21.978;2023-04-09T00:30:00;65622.66;;;4.35;100.00
37132;BME280;23035;50.032;21.978;2023-04-09T00:35:05;65514.19;;;3.27;100.00
37132;BME280;23035;50.032;21.978;2023-04-09T00:40:11;65444.47;;;2.63;100.00
37132;BME280;23035;50.032;21.978;2023-04-09T00:45:16;65434.44;;;2.55;100.00
37132;BME280;23035;50.032;21.978;2023-04-09T00:50:20;65532.50;;;3.49;100.00
37132;BME280;23035;50.032;21.978;2023-04-09T00:55:27;65582.88;;;3.90;100.00
37132;BME280;23035;50.032;21.978;2023-04-09T01:00:32;65569.41;;;3.87;100.00
37132;BME280;23035;50.032;21.978;2023-04-09T01:05:40;65620.94;;;4.31;100.00
37132;BME280;23035;50.032;21.978;2023-04-09T01:10:52;65742.66;;;5.47;100.00
37132;BME280;23035;50.032;21.978;2023-04-09T01:16:00;65658.84;;;4.67;100.00
37132;BME280;23035;50.032;21.978;2023-04-09T01:21:11;65678.78;;;4.91;100.00
37132;BME280;23035;50.032;21.978;2023-04-09T01:26:21;65700.91;;;5.05;100.00
37132;BME280;23035;50.032;21.978;2023-04-09T01:31:35;65704.31;;;5.13;100.00
37132;BME280;23035;50.032;21.978;2023-04-09T01:36:41;65679.56;;;4.84;100.00
37132;BME280;23035;50.032;21.978;2023-04-09T01:41:46;65725.13;;;5.33;100.00
37132;BME280;23035;50.032;21.978;2023-04-09T01:46:53;65696.75;;;5.03;100.00
37132;BME280;23035;50.032;21.978;2023-04-09T01:51:58;65687.75;;;4.97;100.00
37132;BME280;23035;50.032;21.978;2023-04-09T01:57:03;65633.75;;;4.43;100.00
37132;BME280;23035;50.032;21.978;2023-04-09T02:02:12;65617.31;;;4.30;100.00
37132;BME280;23035;50.032;21.978;2023-04-09T02:07:24;65638.84;;;4.55;100.00
37132;BME280;23035;50.032;21.978;2023-04-09T02:12:36;65675.28;;;4.80;100.00
37132;BME280;23035;50.032;21.978;2023-04-09T02:17:41;65696.09;;;5.00;100.00
37132;BME280;23035;50.032;21.978;2023-04-09T02:22:46;65634.72;;;4.42;100.00
37132;BME280;23035;50.032;21.978;2023-04-09T02:27:51;65679.75;;;4.89;100.00
37132;BME280;23035;50.032;21.978;2023-04-09T02:32:56;65657.31;;;4.68;100.00
37132;BME280;23035;50.032;21.978;2023-04-09T02:38:01;65667.03;;;4.80;100.00
37132;BME280;23035;50.032;21.978;2023-04-09T02:43:06;65705.09;;;5.06;100.00
37132;BME280;23035;50.032;21.978;2023-04-09T02:48:11;65638.47;;;4.45;100.00
37132;BME280;23035;50.032;21.978;2023-04-09T02:53:18;65731.00;;;5.38;100.00
37132;BME280;23035;50.032;21.978;2023-04-09T02:58:23;65719.25;;;5.27;100.00
37132;BME280;23035;50.032;21.978;2023-04-09T03:03:28;65684.88;;;4.89;100.00
37132;BME280;23035;50.032;21.978;2023-04-09T03:08:33;65688.09;;;4.93;100.00
37132;BME280;23035;50.032;21.978;2023-04-09T03:13:37;65615.53;;;4.23;100.00
37132;BME280;23035;50.032;21.978;2023-04-09T03:18:43;65596.50;;;4.10;100.00
37132;BME280;23035;50.032;21.978;2023-04-09T03:23:47;65530.38;;;3.47;100.00
37132;BME280;23035;50.032;21.978;2023-04-09T03:28:52;65619.44;;;4.32;100.00
37132;BME280;23035;50.032;21.978;2023-04-09T03:33:58;65666.41;;;4.77;100.00
37132;BME280;23035;50.032;21.978;2023-04-09T03:39:04;65676.34;;;4.81;100.00
37132;BME280;23035;50.032;21.978;2023-04-09T03:44:12;65735.28;;;5.42;100.00
37132;BME280;23035;50.032;21.978;2023-04-09T03:49:44;65764.56;;;5.68;100.00
37132;BME280;23035;50.032;21.978;2023-04-09T03:54:54;65757.72;;;5.64;100.00
37132;BME280;23035;50.032;21.978;2023-04-09T04:00:00;65758.78;;;5.65;100.00
37132;BME280;23035;50.032;21.978;2023-04-09T04:05:15;65752.81;;;5.57;100.00
37132;BME280;23035;50.032;21.978;2023-04-09T04:10:23;65818.44;;;6.17;100.00
37132;BME280;23035;50.032;21.978;2023-04-09T04:15:27;65852.22;;;6.51;100.00
37132;BME280;23035;50.032;21.978;2023-04-09T04:20:33;65787.00;;;5.89;100.00
37132;BME280;23035;50.032;21.978;2023-04-09T04:25:42;65778.47;;;5.81;100.00
37132;BME280;23035;50.032;21.978;2023-04-09T04:30:51;65790.41;;;5.97;100.00
37132;BME280;23035;50.032;21.978;2023-04-09T04:36:05;65811.25;;;6.17;100.00
37132;BME280;23035;50.032;21.978;2023-04-09T04:41:19;65905.06;;;6.99;100.00
37132;BME280;23035;50.032;21.978;2023-04-09T04:46:35;65890.28;;;6.90;100.00
37132;BME280;23035;50.032;21.978;2023-04-09T04:51:41;65805.28;;;6.09;100.00
37132;BME280;23035;50.032;21.978;2023-04-09T04:56:48;65799.84;;;6.01;100.00
37132;BME280;23035;50.032;21.978;2023-04-09T05:02:05;65854.34;;;6.53;100.00
37132;BME280;23035;50.032;21.978;2023-04-09T05:07:30;65867.19;;;6.66;100.00
37132;BME280;23035;50.032;21.978;2023-04-09T05:12:36;65881.72;;;6.82;100.00
37132;BME280;23035;50.032;21.978;2023-04-09T05:17:42;65876.34;;;6.77;100.00
37132;BME280;23035;50.032;21.978;2023-04-09T05:22:50;65996.53;;;7.86;100.00
37132;BME280;23035;50.032;21.978;2023-04-09T05:28:01;65905.59;;;7.00;100.00
37132;BME280;23035;50.032;21.978;2023-04-09T05:33:07;65881.63;;;6.79;100.00
37132;BME280;23035;50.032;21.978;2023-04-09T05:38:13;65885.28;;;6.80;100.00
37132;BME280;23035;50.032;21.978;2023-04-09T05:43:22;66001.34;;;7.91;100.00
37132;BME280;23035;50.032;21.978;2023-04-09T05:48:26;66039.00;;;8.31;100.00
37132;BME280;23035;50.032;21.978;2023-04-09T05:53:33;65996.00;;;7.86;100.00
37132;BME280;23035;50.032;21.978;2023-04-09T05:58:38;65990.66;;;7.81;100.00
37132;BME280;23035;50.032;21.978;2023-04-09T06:03:42;65979.50;;;7.72;100.00
37132;BME280;23035;50.032;21.978;2023-04-09T06:08:48;66014.81;;;8.06;100.00
37132;BME280;23035;50.032;21.978;2023-04-09T06:13:52;66002.63;;;7.97;100.00
37132;BME280;23035;50.032;21.978;2023-04-09T06:18:56;65984.31;;;7.77;100.00
37132;BME280;23035;50.032;21.978;2023-04-09T06:24:03;65979.59;;;7.75;100.00
37132;BME280;23035;50.032;21.978;2023-04-09T06:29:07;65981.75;;;7.77;100.00
37132;BME280;23035;50.032;21.978;2023-04-09T06:34:12;66037.75;;;8.25;100.00
37132;BME280;23035;50.032;21.978;2023-04-09T06:39:19;66104.34;;;8.94;100.00
37132;BME280;23035;50.032;21.978;2023-04-09T06:44:23;66181.50;;;9.67;100.00
37132;BME280;23035;50.032;21.978;2023-04-09T06:49:28;66133.63;;;9.16;100.00
37132;BME280;23035;50.032;21.978;2023-04-09T06:54:34;66037.41;;;8.30;100.00
37132;BME280;23035;50.032;21.978;2023-04-09T06:59:38;66123.00;;;9.09;100.00
37132;BME280;23035;50.032;21.978;2023-04-09T07:04:42;66224.28;;;10.05;100.00
37132;BME280;23035;50.032;21.978;2023-04-09T07:09:49;66146.66;;;9.34;100.00
37132;BME280;23035;50.032;21.978;2023-04-09T07:14:56;66135.50;;;9.26;100.00
37132;BME280;23035;50.032;21.978;2023-04-09T07:20:01;66084.09;;;8.77;100.00
37132;BME280;23035;50.032;21.978;2023-04-09T07:25:07;66009.56;;;8.03;100.00
37132;BME280;23035;50.032;21.978;2023-04-09T07:30:12;66223.75;;;10.04;100.00
37132;BME280;23035;50.032;21.978;2023-04-09T07:35:17;66135.94;;;9.24;100.00
37132;BME280;23035;50.032;21.978;2023-04-09T07:40:23;66257.63;;;10.39;100.00
37132;BME280;23035;50.032;21.978;2023-04-09T07:45:28;66336.41;;;11.11;100.00
37132;BME280;23035;50.032;21.978;2023-04-09T07:50:32;66376.19;;;11.52;100.00
37132;BME280;23035;50.032;21.978;2023-04-09T07:55:38;66403.03;;;11.77;100.00
37132;BME280;23035;50.032;21.978;2023-04-09T08:00:44;66417.56;;;11.91;100.00
37132;BME280;23035;50.032;21.978;2023-04-09T08:05:48;66352.66;;;11.32;100.00
37132;BME280;23035;50.032;21.978;2023-04-09T08:10:54;66265.59;;;10.44;100.00
37132;BME280;23035;50.032;21.978;2023-04-09T08:15:59;66361.69;;;11.38;100.00
37132;BME280;23035;50.032;21.978;2023-04-09T08:21:04;66381.00;;;11.56;100.00
37132;BME280;23035;50.032;21.978;2023-04-09T08:26:10;66199.63;;;9.82;100.00
37132;BME280;23035;50.032;21.978;2023-04-09T08:31:14;66220.72;;;10.06;100.00
37132;BME280;23035;50.032;21.978;2023-04-09T08:36:18;66202.41;;;9.87;100.00
37132;BME280;23035;50.032;21.978;2023-04-09T08:41:25;66294.66;;;10.74;100.00
37132;BME280;23035;50.032;21.978;2023-04-09T08:46:31;66215.78;;;9.99;100.00
37132;BME280;23035;50.032;21.978;2023-04-09T08:51:35;66180.31;;;9.63;100.00
37132;BME280;23035;50.032;21.978;2023-04-09T08:56:42;66183.63;;;9.69;100.00
37132;BME280;23035;50.032;21.978;2023-04-09T09:01:46;66266.22;;;10.47;100.00
37132;BME280;23035;50.032;21.978;2023-04-09T09:07:05;66265.16;;;10.46;100.00
37132;BME280;23035;50.032;21.978;2023-04-09T09:12:11;66204.63;;;9.91;100.00
37132;BME280;23035;50.032;21.978;2023-04-09T09:17:32;66214.09;;;9.95;100.00
37132;BME280;23035;50.032;21.978;2023-04-09T09:22:48;66380.56;;;11.58;100.00
37132;BME280;23035;50.032;21.978;2023-04-09T09:28:06;66343.00;;;11.23;100.00
37132;BME280;23035;50.032;21.978;2023-04-09T09:33:11;66356.88;;;11.33;100.00
37132;BME280;23035;50.032;21.978;2023-04-09T09:38:15;66187.31;;;9.70;100.00
37132;BME280;23035;50.032;21.978;2023-04-09T09:43:21;66403.56;;;11.77;100.00
37132;BME280;23035;50.032;21.978;2023-04-09T09:48:25;66439.91;;;12.07;100.00
37132;BME280;23035;50.032;21.978;2023-04-09T09:53:31;66550.38;;;13.22;100.00
37132;BME280;23035;50.032;21.978;2023-04-09T09:58:40;66409.50;;;11.83;100.00
37132;BME280;23035;50.032;21.978;2023-04-09T10:03:48;66502.94;;;12.72;100.00
37132;BME280;23035;50.032;21.978;2023-04-09T10:08:56;66390.22;;;11.67;100.00
37132;BME280;23035;50.032;21.978;2023-04-09T10:14:04;66601.44;;;13.70;100.00
37132;BME280;23035;50.032;21.978;2023-04-09T10:19:08;66606.13;;;13.69;100.00
37132;BME280;23035;50.032;21.978;2023-04-09T10:24:16;66584.09;;;13.48;100.00
37132;BME280;23035;50.032;21.978;2023-04-09T10:29:31;66568.50;;;13.34;94.28
37132;BME280;23035;50.032;21.978;2023-04-09T10:34:39;66606.06;;;13.67;93.40
37132;BME280;23035;50.032;21.978;2023-04-09T10:39:46;66664.81;;;14.27;85.23
37132;BME280;23035;50.032;21.978;2023-04-09T10:45:07;66675.94;;;14.33;82.70
37132;BME280;23035;50.032;21.978;2023-04-09T10:50:16;66709.31;;;14.64;79.53
37132;BME280;23035;50.032;21.978;2023-04-09T10:55:34;66737.44;;;14.96;76.36
37132;BME280;23035;50.032;21.978;2023-04-09T11:00:42;66702.88;;;14.58;77.48
37132;BME280;23035;50.032;21.978;2023-04-09T11:05:47;66810.03;;;15.62;69.26
37132;BME280;23035;50.032;21.978;2023-04-09T11:10:54;66800.78;;;15.51;72.00
37132;BME280;23035;50.032;21.978;2023-04-09T11:16:01;66867.66;;;16.17;69.17
37132;BME280;23035;50.032;21.978;2023-04-09T11:21:11;66986.69;;;17.27;59.82
37132;BME280;23035;50.032;21.978;2023-04-09T11:26:16;67031.97;;;17.69;58.67
37132;BME280;23035;50.032;21.978;2023-04-09T11:31:27;67027.72;;;17.68;59.32
37132;BME280;23035;50.032;21.978;2023-04-09T11:36:34;67053.75;;;17.97;58.45
37132;BME280;23035;50.032;21.978;2023-04-09T11:41:39;66978.69;;;17.22;63.84
37132;BME280;23035;50.032;21.978;2023-04-09T11:46:44;66815.91;;;15.65;65.29
37132;BME280;23035;50.032;21.978;2023-04-09T11:51:50;66849.88;;;16.00;68.30
37132;BME280;23035;50.032;21.978;2023-04-09T11:56:57;66828.34;;;15.80;68.54
37132;BME280;23035;50.032;21.978;2023-04-09T12:02:05;66766.44;;;15.21;71.42
37132;BME280;23035;50.032;21.978;2023-04-09T12:07:09;66745.97;;;15.02;70.28
37132;BME280;23035;50.032;21.978;2023-04-09T12:12:17;66802.34;;;15.50;68.92
37132;BME280;23035;50.032;21.978;2023-04-09T12:17:23;66672.72;;;14.30;72.60
37132;BME280;23035;50.032;21.978;2023-04-09T12:22:27;66729.75;;;14.84;68.37
37132;BME280;23035;50.032;21.978;2023-04-09T12:27:32;66676.09;;;14.38;70.91
37132;BME280;23035;50.032;21.978;2023-04-09T12:32:38;66598.06;;;13.62;71.02
37132;BME280;23035;50.032;21.978;2023-04-09T12:37:42;66584.63;;;13.49;73.79
37132;BME280;23035;50.032;21.978;2023-04-09T12:42:47;66568.50;;;13.34;73.58
37132;BME280;23035;50.032;21.978;2023-04-09T12:47:52;66575.03;;;13.42;79.63
37132;BME280;23035;50.032;21.978;2023-04-09T12:52:57;66618.50;;;13.81;77.72
37132;BME280;23035;50.032;21.978;2023-04-09T12:58:01;66657.50;;;14.11;79.75
37132;BME280;23035;50.032;21.978;2023-04-09T13:03:07;66630.91;;;13.95;77.63
37132;BME280;23035;50.032;21.978;2023-04-09T13:08:12;66715.41;;;14.75;76.75
37132;BME280;23035;50.032;21.978;2023-04-09T13:13:16;66863.28;;;16.10;70.10
37132;BME280;23035;50.032;21.978;2023-04-09T13:18:23;66842.81;;;15.91;67.43
37132;BME280;23035;50.032;21.978;2023-04-09T13:23:27;66780.81;;;15.30;71.90
37132;BME280;23035;50.032;21.978;2023-04-09T13:28:31;66611.59;;;13.77;79.49
37132;BME280;23035;50.032;21.978;2023-04-09T13:33:37;66694.31;;;14.53;77.79
37132;BME280;23035;50.032;21.978;2023-04-09T13:38:42;66698.72;;;14.59;76.86
37132;BME280;23035;50.032;21.978;2023-04-09T13:43:46;66477.66;;;12.48;86.40
37132;BME280;23035;50.032;21.978;2023-04-09T13:48:52;66465.84;;;12.37;91.45
37132;BME280;23035;50.032;21.978;2023-04-09T13:53:57;66500.78;;;12.70;86.68
37132;BME280;23035;50.032;21.978;2023-04-09T13:59:02;66415.38;;;11.89;97.63
37132;BME280;23035;50.032;21.978;2023-04-09T14:04:07;66460.50;;;12.31;93.14
37132;BME280;23035;50.032;21.978;2023-04-09T14:09:13;66501.31;;;12.70;93.63
37132;BME280;23035;50.032;21.978;2023-04-09T14:14:18;66638.38;;;14.00;81.74
37132;BME280;23035;50.032;21.978;2023-04-09T14:19:23;66533.63;;;13.03;82.90
37132;BME280;23035;50.032;21.978;2023-04-09T14:24:28;66601.28;;;13.65;82.29
37132;BME280;23035;50.032;21.978;2023-04-09T14:29:32;66651.88;;;14.15;77.66
37132;BME280;23035;50.032;21.978;2023-04-09T14:34:38;66621.09;;;13.81;78.95
37132;BME280;23035;50.032;21.978;2023-04-09T14:39:42;66555.06;;;13.21;82.54
37132;BME280;23035;50.032;21.978;2023-04-09T14:44:46;66619.41;;;13.77;85.13
37132;BME280;23035;50.032;21.978;2023-04-09T14:49:52;66704.00;;;14.62;67.63
37132;BME280;23035;50.032;21.978;2023-04-09T14:54:56;66665.25;;;14.25;67.99
37132;BME280;23035;50.032;21.978;2023-04-09T15:00:01;66592.66;;;13.57;70.02
37132;BME280;23035;50.032;21.978;2023-04-09T15:05:08;66730.38;;;14.87;64.33
37132;BME280;23035;50.032;21.978;2023-04-09T15:10:12;66710.41;;;14.66;64.69
37132;BME280;23035;50.032;21.978;2023-04-09T15:15:17;66653.44;;;14.14;66.96
37132;BME280;23035;50.032;21.978;2023-04-09T15:20:23;66770.66;;;15.23;62.70
37132;BME280;23035;50.032;21.978;2023-04-09T15:25:27;66710.31;;;14.63;63.87
37132;BME280;23035;50.032;21.978;2023-04-09T15:30:32;66703.94;;;14.59;61.85
37132;BME280;23035;50.032;21.978;2023-04-09T15:35:38;66678.09;;;14.35;62.85
37132;BME280;23035;50.032;21.978;2023-04-09T15:40:43;66662.50;;;14.20;63.24
37132;BME280;23035;50.032;21.978;2023-04-09T15:45:48;66514.91;;;12.88;68.13
37132;BME280;23035;50.032;21.978;2023-04-09T15:50:57;66422.97;;;11.98;100.00
37132;BME280;23035;50.032;21.978;2023-04-09T15:56:01;66254.88;;;10.34;100.00
37132;BME280;23035;50.032;21.978;2023-04-09T16:01:07;66224.28;;;10.05;100.00
37132;BME280;23035;50.032;21.978;2023-04-09T16:06:14;66206.59;;;9.88;100.00
37132;BME280;23035;50.032;21.978;2023-04-09T16:11:18;66180.44;;;9.66;100.00
37132;BME280;23035;50.032;21.978;2023-04-09T16:16:23;66198.63;;;9.83;100.00
37132;BME280;23035;50.032;21.978;2023-04-09T16:21:29;66224.81;;;10.05;100.00
37132;BME280;23035;50.032;21.978;2023-04-09T16:26:34;66184.63;;;9.67;100.00
37132;BME280;23035;50.032;21.978;2023-04-09T16:31:38;66156.75;;;9.41;100.00
37132;BME280;23035;50.032;21.978;2023-04-09T16:36:45;66200.63;;;9.80;100.00
37132;BME280;23035;50.032;21.978;2023-04-09T16:41:50;66221.16;;;10.04;100.00
37132;BME280;23035;50.032;21.978;2023-04-09T16:46:55;66189.44;;;9.72;100.00
37132;BME280;23035;50.032;21.978;2023-04-09T16:52:02;66163.28;;;9.49;100.00
37132;BME280;23035;50.032;21.978;2023-04-09T16:57:07;66118.28;;;9.07;100.00
37132;BME280;23035;50.032;21.978;2023-04-09T17:02:11;66122.56;;;9.11;100.00
37132;BME280;23035;50.032;21.978;2023-04-09T17:07:18;66065.25;;;8.56;100.00
37132;BME280;23035;50.032;21.978;2023-04-09T17:12:22;66107.38;;;8.91;100.00
37132;BME280;23035;50.032;21.978;2023-04-09T17:17:30;66294.09;;;10.74;100.00
37132;BME280;23035;50.032;21.978;2023-04-09T17:22:36;66298.38;;;10.78;100.00
37132;BME280;23035;50.032;21.978;2023-04-09T17:27:40;66273.09;;;10.51;100.00
37132;BME280;23035;50.032;21.978;2023-04-09T17:32:48;66320.91;;;10.99;100.00
37132;BME280;23035;50.032;21.978;2023-04-09T17:37:54;66162.94;;;9.54;100.00
37132;BME280;23035;50.032;21.978;2023-04-09T17:42:58;66185.16;;;9.68;100.00
37132;BME280;23035;50.032;21.978;2023-04-09T17:48:03;66114.63;;;9.06;100.00
37132;BME280;23035;50.032;21.978;2023-04-09T17:53:09;66068.47;;;8.59;100.00
37132;BME280;23035;50.032;21.978;2023-04-09T17:58:14;66010.09;;;8.04;100.00
37132;BME280;23035;50.032;21.978;2023-04-09T18:03:18;66053.47;;;8.45;100.00
37132;BME280;23035;50.032;21.978;2023-04-09T18:08:24;66002.63;;;7.97;100.00
37132;BME280;23035;50.032;21.978;2023-04-09T18:13:28;66027.69;;;8.18;100.00
37132;BME280;23035;50.032;21.978;2023-04-09T18:18:33;66027.75;;;8.21;100.00
37132;BME280;23035;50.032;21.978;2023-04-09T18:23:38;66023.84;;;8.12;100.00
37132;BME280;23035;50.032;21.978;2023-04-09T18:28:43;66065.69;;;8.54;100.00
37132;BME280;23035;50.032;21.978;2023-04-09T18:33:47;66030.34;;;8.21;100.00
37132;BME280;23035;50.032;21.978;2023-04-09T18:38:53;66030.88;;;8.21;100.00
37132;BME280;23035;50.032;21.978;2023-04-09T18:43:57;66061.50;;;8.53;100.00
37132;BME280;23035;50.032;21.978;2023-04-09T18:49:02;66118.28;;;9.07;100.00
37132;BME280;23035;50.032;21.978;2023-04-09T18:54:08;66141.22;;;9.26;100.00
37132;BME280;23035;50.032;21.978;2023-04-09T18:59:12;66040.34;;;8.25;100.00
37132;BME280;23035;50.032;21.978;2023-04-09T19:04:17;65950.06;;;7.44;100.00
37132;BME280;23035;50.032;21.978;2023-04-09T19:09:23;65921.19;;;7.17;100.00
37132;BME280;23035;50.032;21.978;2023-04-09T19:14:27;65867.19;;;6.66;100.00
37132;BME280;23035;50.032;21.978;2023-04-09T19:19:31;65917.00;;;7.15;100.00
37132;BME280;23035;50.032;21.978;2023-04-09T19:24:37;65989.13;;;7.82;100.00
37132;BME280;23035;50.032;21.978;2023-04-09T19:29:41;66030.97;;;8.24;100.00
37132;BME280;23035;50.032;21.978;2023-04-09T19:34:46;66076.06;;;8.69;100.00
37132;BME280;23035;50.032;21.978;2023-04-09T19:39:52;66088.19;;;8.76;100.00
37132;BME280;23035;50.032;21.978;2023-04-09T19:44:56;66035.59;;;8.23;100.00
37132;BME280;23035;50.032;21.978;2023-04-09T19:50:00;66025.63;;;8.19;100.00
37132;BME280;23035;50.032;21.978;2023-04-09T19:55:07;66058.28;;;8.50;100.00
37132;BME280;23035;50.032;21.978;2023-04-09T20:00:12;66084.44;;;8.72;100.00
37132;BME280;23035;50.032;21.978;2023-04-09T20:05:19;66022.22;;;8.11;100.00
37132;BME280;23035;50.032;21.978;2023-04-09T20:10:25;65928.59;;;7.22;100.00
37132;BME280;23035;50.032;21.978;2023-04-09T20:15:29;65947.50;;;7.44;100.00
37132;BME280;23035;50.032;21.978;2023-04-09T20:20:34;65888.56;;;6.86;100.00
37132;BME280;23035;50.032;21.978;2023-04-09T20:25:40;65914.25;;;7.10;100.00
37132;BME280;23035;50.032;21.978;2023-04-09T20:30:44;65760.81;;;5.64;100.00
37132;BME280;23035;50.032;21.978;2023-04-09T20:35:48;65822.91;;;6.26;100.00
37132;BME280;23035;50.032;21.978;2023-04-09T20:40:55;65861.94;;;6.63;100.00
37132;BME280;23035;50.032;21.978;2023-04-09T20:45:59;65829.78;;;6.30;100.00
37132;BME280;23035;50.032;21.978;2023-04-09T20:51:07;65933.94;;;7.27;100.00
37132;BME280;23035;50.032;21.978;2023-04-09T20:56:14;65977.38;;;7.70;100.00
37132;BME280;23035;50.032;21.978;2023-04-09T21:01:20;66018.13;;;8.12;100.00
37132;BME280;23035;50.032;21.978;2023-04-09T21:06:25;66036.69;;;8.24;100.00
37132;BME280;23035;50.032;21.978;2023-04-09T21:11:30;66067.31;;;8.56;100.00
37132;BME280;23035;50.032;21.978;2023-04-09T21:16:35;66057.16;;;8.46;100.00
37132;BME280;23035;50.032;21.978;2023-04-09T21:21:39;66039.00;;;8.31;100.00
37132;BME280;23035;50.032;21.978;2023-04-09T21:26:45;66079.00;;;8.65;100.00
37132;BME280;23035;50.032;21.978;2023-04-09T21:31:53;66052.84;;;8.42;100.00
37132;BME280;23035;50.032;21.978;2023-04-09T21:36:57;66077.84;;;8.61;100.00
37132;BME280;23035;50.032;21.978;2023-04-09T21:42:03;66089.28;;;8.77;100.00
37132;BME280;23035;50.032;21.978;2023-04-09T21:47:08;66080.16;;;8.68;100.00
37132;BME280;23035;50.032;21.978;2023-04-09T21:52:13;66147.03;;;9.29;100.00
37132;BME280;23035;50.032;21.978;2023-04-09T21:57:20;66104.19;;;8.88;100.00
37132;BME280;23035;50.032;21.978;2023-04-09T22:02:26;66116.13;;;9.05;100.00
37132;BME280;23035;50.032;21.978;2023-04-09T22:07:30;66137.56;;;9.25;100.00
37132;BME280;23035;50.032;21.978;2023-04-09T22:12:36;66112.38;;;9.01;100.00
37132;BME280;23035;50.032;21.978;2023-04-09T22:17:40;66086.22;;;8.79;100.00
37132;BME280;23035;50.032;21.978;2023-04-09T22:22:44;66058.28;;;8.50;100.00
37132;BME280;23035;50.032;21.978;2023-04-09T22:27:51;66088.63;;;8.74;100.00
37132;BME280;23035;50.032;21.978;2023-04-09T22:32:56;66108.81;;;9.03;100.00
37132;BME280;23035;50.032;21.978;2023-04-09T22:38:00;66071.69;;;8.62;100.00
37132;BME280;23035;50.032;21.978;2023-04-09T22:43:06;66136.31;;;9.19;100.00
37132;BME280;23035;50.032;21.978;2023-04-09T22:48:10;66098.91;;;8.86;100.00
37132;BME280;23035;50.032;21.978;2023-04-09T22:53:15;66075.34;;;8.63;100.00
37132;BME280;23035;50.032;21.978;2023-04-09T22:58:22;66076.50;;;8.67;100.00
37132;BME280;23035;50.032;21.978;2023-04-09T23:03:26;66128.34;;;9.14;100.00
37132;BME280;23035;50.032;21.978;2023-04-09T23:08:30;66132.38;;;9.25;100.00
37132;BME280;23035;50.032;21.978;2023-04-09T23:13:36;66067.31;;;8.56;100.00
37132;BME280;23035;50.032;21.978;2023-04-09T23:18:40;66058.22;;;8.47;100.00
37132;BME280;23035;50.032;21.978;2023-04-09T23:23:44;65957.13;;;7.54;100.00
37132;BME280;23035;50.032;21.978;2023-04-09T23:28:51;65935.56;;;7.28;100.00
37132;BME280;23035;50.032;21.978;2023-04-09T23:33:55;65953.84;;;7.48;100.00
37132;BME280;23035;50.032;21.978;2023-04-09T23:38:59;65993.94;;;7.86;100.00
37132;BME280;23035;50.032;21.978;2023-04-09T23:44:04;66007.41;;;8.01;100.00
37132;BME280;23035;50.032;21.978;2023-04-09T23:49:08;66018.56;;;8.10;100.00
37132;BME280;23035;50.032;21.978;2023-04-09T23:54:13;66030.25;;;8.18;100.00
37132;BME280;23035;50.032;21.978;2023-04-09T23:59:18;66097.75;;;8.82;100.00
